Observations for STANSTED AIRPORT, United Kingdom (EGSS)

EGSS 140820Z 28007KT 9999 FEW020 BKN042 18/13 Q1016 
EGSS 140750Z AUTO 30007KT 260V320 9999 OVC042 18/13 Q1015   
EGSS 140720Z AUTO 28007KT 250V310 9999 BKN044 17/13 Q1015   
EGSS 140650Z AUTO 29006KT 9999 NCD 16/12 Q1015  
EGSS 140620Z AUTO 28005KT 250V310 9999 NCD 15/12 Q1015  
EGSS 140550Z AUTO 26005KT 9999 NCD 14/12 Q1015  
EGSS 140520Z AUTO 28004KT 9999 NCD 13/11 Q1014  
EGSS 140450Z AUTO 28005KT 250V310 9999 NCD 13/11 Q1014  
EGSS 140420Z AUTO 30004KT 260V320 9999 NCD 14/11 Q1014  
EGSS 140350Z AUTO 30005KT 270V330 9999 NCD 14/11 Q1013  
EGSS 140320Z AUTO 30004KT 9999 NCD 14/11 Q1013  
EGSS 140250Z AUTO 29004KT 250V330 9999 NCD 14/12 Q1013  
EGSS 140220Z AUTO 30005KT 270V340 9999 NCD 15/12 Q1013  
EGSS 140150Z AUTO 30007KT 280V340 9999 SCT039 15/12 Q1013   
EGSS 140120Z AUTO 31007KT 9999 OVC032 16/12 Q1013   
EGSS 140050Z AUTO 29008KT 9999 OVC034 16/12 Q1012   
EGSS 140020Z AUTO 29006KT 9999 OVC032 17/13 Q1012   
EGSS 132350Z AUTO 30006KT 270V340 9999 OVC031 17/13 Q1012   
EGSS 132320Z AUTO 30005KT 270V340 9999 BKN032 17/13 Q1012   
EGSS 132250Z AUTO 31007KT 9999 OVC033 17/13 Q1011   
EGSS 132220Z AUTO 31007KT 270V340 9999 BKN032 18/14 Q1011   
EGSS 132150Z AUTO 30007KT 9999 FEW028 SCT034 17/14 Q1011
EGSS 132120Z AUTO 30007KT 9999 FEW022 SCT027 18/14 Q1011
EGSS 132050Z AUTO 31004KT 270V340 9999 SCT026 17/15 Q1010   
EGSS 132020Z AUTO 30002KT 9999 NCD 17/15 Q1010  
EGSS 131950Z AUTO 34004KT 9999 NCD 18/15 Q1009  
EGSS 131920Z AUTO 34010KT 310V010 9999 FEW029 SCT035 19/15 Q1009
EGSS 131850Z AUTO 31007G17KT 270V350 9999 FEW034/// SCT044/// //////CB 21/15 Q1008  
EGSS 131820Z AUTO 26004KT 220V300 9999 FEW044/// //////TCU 21/15 Q1008  
EGSS 131750Z AUTO 26001KT 9999 NCD 21/16 Q1008  
EGSS 131720Z AUTO VRB01KT 9999 SCT046 21/16 Q1008   
EGSS 131650Z AUTO 03003KT 9999 SCT043 20/16 Q1007   
EGSS 131620Z AUTO 03008KT 9999 BKN044/// //////CB 21/16 Q1007   
EGSS 131550Z AUTO VRB03KT 9999 //////CB 21/16 Q1007 
EGSS 131520Z AUTO 31006KT 280V340 9999 FEW042/// //////CB 21/16 Q1007   
EGSS 131450Z AUTO 31004KT 260V350 9999 -RA FEW038/// //////CB 20/16 Q1007   
EGSS 131420Z AUTO 33009KT 9999 VCTS BKN029/// BKN034/// //////CB 21/15 Q1007
EGSS 131350Z AUTO 28009KT 250V340 9999 SCT023/// //////CB 22/16 Q1007   
EGSS 131320Z AUTO 28005KT 250V320 9999 FEW021/// //////CB 20/17 Q1007   
EGSS 131250Z AUTO 29005KT 270V330 9999 //////CB 19/17 Q1007 
EGSS 131220Z 30005KT 260V320 8000 -RA SCT021CB SCT034 BKN047 17/16 Q1007 RESHRA 
EGSS 131150Z 27006KT 240V310 9999 FEW021CB SCT027 20/15 Q1007   
EGSS 131120Z AUTO 30007KT 260V330 9999 FEW017/// SCT048/// //////TCU 19/15 Q1006
EGSS 131050Z AUTO 28006KT 250V310 9999 FEW017/// SCT036/// BKN042/// //////CB 19/15 Q1006   
EGSS 131020Z AUTO 28006KT 240V330 9999 SCT017 SCT025 BKN035 19/15 Q1006 
EGSS 130950Z AUTO 28007KT 240V320 9999 BKN016 BKN034 19/15 Q1006
EGSS 130920Z AUTO 27005KT 240V310 9999 SCT013 SCT018 OVC045 18/15 Q1006 
EGSS 130850Z AUTO 26006KT 220V280 9999 BKN011 OVC046 18/15 Q1006
EGSS 130820Z AUTO 25006KT 9999 BKN010 BKN016 OVC045 17/15 Q1006 
EGSS 130750Z 26005KT 230V300 9999 SCT008 BKN013 17/15 Q1006